Time;durP1;ratioP1;P1;durP2;ratioP2;P2;SDS_P1;SDS_P2;PMS_P1;PMS_P2;Temp;Humidity;BMP_temperature;BMP_pressure;BME280_temperature;BME280_humidity;BME280_pressure;Samples;Min_cycle;Max_cycle;Signal;HPM_P1;HPM_P2
2023/10/13 00:02:01;;;;;;;27.10;16.65;;;;;;;16.85;90.98;98231.69;5056233;28;20048;-74
2023/10/13 00:04:26;;;;;;;28.23;17.27;;;;;;;16.83;91.36;98237.41;5040292;28;20503;-73
2023/10/13 00:06:52;;;;;;;25.52;17.17;;;;;;;16.66;91.42;98233.47;5039237;28;20020;-74
2023/10/13 00:09:20;;;;;;;30.08;17.52;;;;;;;16.71;91.28;98250.53;5038820;28;20774;-73
2023/10/13 00:11:45;;;;;;;28.23;17.08;;;;;;;16.70;91.34;98250.81;5056853;28;20028;-74
2023/10/13 00:14:16;;;;;;;28.13;17.08;;;;;;;16.59;91.92;98233.78;5052854;28;20452;-72
2023/10/13 00:16:42;;;;;;;32.28;17.85;;;;;;;16.63;91.64;98231.28;5073449;28;20047;-74
2023/10/13 00:19:10;;;;;;;27.65;17.75;;;;;;;16.66;91.71;98233.47;5053881;28;20017;-73
2023/10/13 00:21:35;;;;;;;29.58;17.90;;;;;;;16.58;91.68;98219.38;5073625;28;20033;-72
2023/10/13 00:24:01;;;;;;;26.58;18.30;;;;;;;16.54;92.09;98226.47;5053630;28;20450;-73
2023/10/13 00:26:28;;;;;;;25.45;17.42;;;;;;;16.61;92.44;98238.94;5056469;28;20039;-72
2023/10/13 00:29:08;;;;;;;29.23;18.20;;;;;;;16.54;92.40;98237.34;5054436;28;20021;-73
2023/10/13 00:31:40;;;;;;;29.83;17.83;;;;;;;16.56;92.50;98235.16;5052423;28;20040;-73
2023/10/13 00:34:18;;;;;;;28.77;17.58;;;;;;;16.57;92.31;98244.91;5054047;28;20496;-74
2023/10/13 00:37:13;;;;;;;31.92;17.05;;;;;;;16.56;92.40;98228.91;5056982;28;20503;-74
2023/10/13 00:39:36;;;;;;;30.63;18.55;;;;;;;16.60;92.61;98229.94;5058139;28;20095;-72
2023/10/13 00:42:08;;;;;;;29.33;18.25;;;;;;;16.66;92.34;98228.03;5072456;28;20376;-72
2023/10/13 00:44:44;;;;;;;26.35;17.50;;;;;;;16.69;92.20;98216.56;5071498;28;20518;-73
2023/10/13 00:47:09;;;;;;;;;;;;;;;16.52;92.30;98234.06;5056552;28;20170;-73
2023/10/13 00:49:39;;;;;;;27.87;17.07;;;;;;;16.61;92.33;98207.13;5051129;28;19935;-71
2023/10/13 00:52:10;;;;;;;27.33;16.27;;;;;;;16.82;91.98;98227.63;5041849;28;20117;-71
2023/10/13 00:54:37;;;;;;;26.33;15.98;;;;;;;16.74;92.12;98217.34;5052006;28;20048;-71
2023/10/13 00:57:26;;;;;;;27.23;17.08;;;;;;;16.75;92.27;98223.59;5055057;28;20028;-71
2023/10/13 00:59:53;;;;;;;30.80;17.08;;;;;;;16.77;92.22;98219.50;5051431;28;20178;-72
2023/10/13 01:05:04;;;;;;;30.90;17.38;;;;;;;16.66;91.97;98189.94;5037898;28;20036;-74
2023/10/13 01:07:29;;;;;;;24.73;16.60;;;;;;;16.81;91.84;98214.28;5045401;28;20048;-74
2023/10/13 01:09:55;;;;;;;29.02;17.63;;;;;;;16.78;92.27;98209.44;5037889;28;20481;-74
2023/10/13 01:12:24;;;;;;;25.10;16.52;;;;;;;16.77;91.98;98205.09;5073635;28;20039;-74
2023/10/13 01:14:49;;;;;;;28.35;16.58;;;;;;;16.87;92.06;98229.50;5056063;28;20032;-72
2023/10/13 01:17:15;;;;;;;30.40;17.08;;;;;;;16.81;92.07;98215.13;5052305;28;20035;-72
2023/10/13 01:19:45;;;;;;;28.70;17.92;;;;;;;16.80;92.38;98218.94;5042407;28;20047;-72
2023/10/13 01:22:11;;;;;;;29.95;17.52;;;;;;;16.80;92.31;98215.41;5040083;28;20400;-72
2023/10/13 01:24:37;;;;;;;27.65;18.50;;;;;;;16.84;92.19;98224.63;5055990;28;20103;-73
2023/10/13 01:27:19;;;;;;;28.50;17.73;;;;;;;16.87;92.23;98213.19;5038916;28;20107;-74
2023/10/13 01:29:48;;;;;;;28.98;18.33;;;;;;;16.80;92.13;98212.69;5040359;28;20039;-73
2023/10/13 01:32:18;;;;;;;29.02;17.55;;;;;;;16.76;92.19;98200.72;5054873;28;20098;-74
2023/10/13 01:34:48;;;;;;;30.85;17.38;;;;;;;16.72;92.47;98195.06;5054700;28;20039;-71
2023/10/13 01:37:15;;;;;;;28.35;17.58;;;;;;;16.76;92.00;98185.22;5035654;28;20041;-72
2023/10/13 01:39:41;;;;;;;26.98;17.52;;;;;;;16.75;92.57;98194.50;5045691;28;20070;-71
2023/10/13 01:42:06;;;;;;;23.10;16.45;;;;;;;16.55;92.28;98153.84;5037336;28;20442;-72
2023/10/13 01:44:32;;;;;;;27.40;16.95;;;;;;;16.74;92.57;98192.03;5053906;28;20035;-74
2023/10/13 01:47:06;;;;;;;31.92;16.85;;;;;;;16.73;92.54;98179.56;5037209;28;20047;-73
2023/10/13 01:49:41;;;;;;;30.70;16.50;;;;;;;16.65;92.82;98177.44;5053567;28;20043;-69
2023/10/13 01:52:08;;;;;;;27.33;16.95;;;;;;;16.63;92.83;98190.50;5055006;28;20044;-72
2023/10/13 01:54:33;;;;;;;24.05;16.63;;;;;;;16.67;92.71;98188.84;5053741;28;20036;-71
2023/10/13 01:56:59;;;;;;;29.27;17.05;;;;;;;16.71;92.92;98198.06;5053709;28;20036;-71
2023/10/13 01:59:26;;;;;;;28.08;17.33;;;;;;;16.67;92.79;98199.72;5050538;28;20052;-72
2023/10/13 02:01:54;;;;;;;22.40;15.25;;;;;;;16.67;92.56;98197.00;5050631;28;20033;-71
2023/10/13 02:04:21;;;;;;;29.38;18.35;;;;;;;16.65;92.06;98199.19;5048660;28;20078;-73
2023/10/13 02:06:46;;;;;;;24.90;17.00;;;;;;;16.64;92.67;98197.59;5054798;28;20047;-73
2023/10/13 02:09:27;;;;;;;29.55;19.02;;;;;;;16.55;92.85;98190.00;5053787;28;20020;-73
2023/10/13 02:11:56;;;;;;;29.52;17.85;;;;;;;16.52;92.93;98171.53;5072514;28;20071;-73
2023/10/13 02:14:22;;;;;;;29.83;16.92;;;;;;;16.69;92.64;98189.34;5057939;28;20024;-73
2023/10/13 02:16:50;;;;;;;28.60;17.50;;;;;;;16.71;92.48;98198.88;5041824;28;20048;-74
2023/10/13 02:19:19;;;;;;;31.48;16.65;;;;;;;16.74;92.79;98194.75;5058035;28;20029;-72
2023/10/13 02:21:45;;;;;;;25.63;16.58;;;;;;;16.64;92.47;98171.19;5041177;28;20052;-71
2023/10/13 02:24:17;;;;;;;29.20;16.83;;;;;;;16.77;92.45;98175.97;5057287;28;20055;-71
2023/10/13 02:26:43;;;;;;;31.08;18.08;;;;;;;16.78;92.26;98165.94;5038144;28;20033;-71
2023/10/13 02:29:12;;;;;;;28.10;17.23;;;;;;;16.68;92.34;98160.56;5052139;28;20021;-71
2023/10/13 02:31:38;;;;;;;22.42;16.38;;;;;;;16.72;92.30;98167.03;5065974;28;20132;-73
2023/10/13 02:34:08;;;;;;;28.58;16.15;;;;;;;16.67;92.29;98156.19;5057370;28;20052;-72
2023/10/13 02:36:37;;;;;;;27.17;16.65;;;;;;;16.76;92.33;98173.53;5053891;28;20061;-73
2023/10/13 02:39:09;;;;;;;27.63;16.60;;;;;;;16.77;92.19;98175.16;5023290;28;20082;-71
2023/10/13 02:41:38;;;;;;;24.70;15.93;;;;;;;16.72;92.27;98167.03;5037792;28;20033;-71
2023/10/13 02:44:20;;;;;;;25.75;16.30;;;;;;;16.77;92.07;98180.59;5053758;28;20083;-70
2023/10/13 02:46:50;;;;;;;27.80;16.60;;;;;;;16.70;92.20;98169.25;5053021;28;20035;-71
2023/10/13 02:49:19;;;;;;;22.92;15.85;;;;;;;16.70;92.28;98177.41;5040623;28;20055;-71
2023/10/13 02:51:44;;;;;;;29.80;16.63;;;;;;;16.76;92.23;98181.69;5057252;28;20037;-72
2023/10/13 02:54:10;;;;;;;27.88;15.82;;;;;;;16.74;92.11;98181.16;5053432;28;20037;-72
2023/10/13 02:56:36;;;;;;;24.88;16.17;;;;;;;16.71;92.43;98173.59;5050426;28;20036;-70
2023/10/13 02:59:05;;;;;;;26.30;16.30;;;;;;;16.67;91.89;98156.19;5056240;28;20115;-70
2023/10/13 03:01:34;;;;;;;29.10;17.15;;;;;;;16.69;92.15;98148.56;5057290;28;20099;-72
2023/10/13 03:04:02;;;;;;;25.67;16.05;;;;;;;16.79;92.21;98159.38;5074610;28;20032;-70
2023/10/13 03:06:34;;;;;;;25.17;16.48;;;;;;;16.79;92.18;98170.25;5039954;28;20029;-70
2023/10/13 03:09:17;;;;;;;26.23;15.10;;;;;;;16.77;92.36;98162.38;5053521;28;20056;-73
2023/10/13 03:11:47;;;;;;;28.15;15.00;;;;;;;16.73;92.19;98142.31;5026198;28;20037;-71
2023/10/13 03:14:23;;;;;;;22.08;16.10;;;;;;;16.80;92.04;98163.72;5025461;28;20036;-72
2023/10/13 03:16:53;;;;;;;23.50;15.80;;;;;;;16.68;92.42;98133.38;5057620;28;20132;-73
2023/10/13 03:19:19;;;;;;;24.45;14.80;;;;;;;16.69;91.98;98129.53;5057214;28;20017;-73
2023/10/13 03:21:54;;;;;;;23.10;15.30;;;;;;;16.73;92.05;98130.59;5057708;28;20054;-72
2023/10/13 03:24:22;;;;;;;27.33;15.55;;;;;;;16.81;92.11;98143.56;5040554;28;20075;-73
2023/10/13 03:26:52;;;;;;;24.95;15.98;;;;;;;16.80;91.95;98141.97;5057414;28;20032;-72
2023/10/13 03:29:21;;;;;;;23.77;15.18;;;;;;;16.74;92.47;98140.38;5057161;28;20032;-73
2023/10/13 03:31:50;;;;;;;21.83;15.30;;;;;;;16.70;92.37;98121.09;5074363;28;20024;-71
2023/10/13 03:34:20;;;;;;;24.13;15.18;;;;;;;16.73;93.18;98136.03;5044563;28;20033;-70
2023/10/13 03:36:58;;;;;;;26.27;15.65;;;;;;;16.67;92.41;98126.28;5074007;28;20016;-71
2023/10/13 03:39:30;;;;;;;26.30;16.33;;;;;;;16.74;92.56;98148.53;5058104;28;20090;-72
2023/10/13 03:41:57;;;;;;;28.38;16.63;;;;;;;16.75;92.55;98144.72;5073166;28;20078;-72
2023/10/13 03:44:23;;;;;;;29.02;15.93;;;;;;;16.67;92.38;98137.16;5056344;28;20519;-73
2023/10/13 03:46:48;;;;;;;25.60;16.67;;;;;;;16.67;92.19;98120.84;5036422;28;20056;-72
2023/10/13 03:49:21;;;;;;;22.88;14.30;;;;;;;16.73;92.30;98134.16;5062209;28;20431;-73
2023/10/13 03:51:50;;;;;;;29.40;16.05;;;;;;;16.59;92.41;98095.91;5056096;28;20393;-72
2023/10/13 03:54:16;;;;;;;25.65;15.52;;;;;;;16.77;92.33;98121.59;5056444;28;20115;-72
2023/10/13 03:56:44;;;;;;;24.10;15.40;;;;;;;16.77;92.40;98108.00;5056006;28;20450;-72
2023/10/13 03:59:17;;;;;;;20.60;14.50;;;;;;;16.81;92.45;98116.38;5052488;28;20024;-73
2023/10/13 04:04:11;;;;;;;22.83;14.98;;;;;;;16.78;92.64;98116.97;5074471;28;20056;-73
2023/10/13 04:17:22;;;;;;;23.38;15.15;;;;;;;16.79;92.23;98113.13;5052941;28;20488;-72
2023/10/13 04:25:35;;;;;;;25.88;14.60;;;;;;;16.66;92.24;98086.59;5072438;28;20042;-72
2023/10/13 04:41:57;;;;;;;29.73;14.70;;;;;;;16.80;91.89;98103.88;5051122;28;20036;-72
2023/10/13 04:47:07;;;;;;;25.63;14.15;;;;;;;16.79;91.86;98096.81;5069409;28;20140;-72
2023/10/13 05:51:33;;;;;;;22.17;15.25;;;;;;;16.53;90.79;98094.31;5062744;28;20036;-73
2023/10/13 06:29:56;;;;;;;20.48;13.18;;;;;;;16.82;87.62;98096.25;5062122;28;20068;-72
2023/10/13 06:32:25;;;;;;;17.08;12.48;;;;;;;16.91;87.25;98092.63;5046937;28;20500;-72
2023/10/13 06:35:18;;;;;;;19.65;12.75;;;;;;;16.97;86.82;98085.19;5077490;28;20113;-73
2023/10/13 06:37:44;;;;;;;25.48;12.85;;;;;;;16.99;86.46;98085.75;5050786;28;20492;-73
2023/10/13 06:40:25;;;;;;;19.42;12.18;;;;;;;17.10;85.91;98087.25;5042631;28;20024;-72
2023/10/13 06:43:03;;;;;;;19.13;11.40;;;;;;;17.16;85.61;98092.34;5065004;28;20063;-72
2023/10/13 06:45:29;;;;;;;18.13;11.40;;;;;;;17.21;85.31;98094.19;5043310;28;20398;-72
2023/10/13 06:47:55;;;;;;;17.20;11.73;;;;;;;17.20;84.76;98087.13;5042742;28;20025;-73
2023/10/13 06:50:24;;;;;;;21.80;11.55;;;;;;;17.28;84.18;98090.03;5056989;28;20086;-72
2023/10/13 06:52:54;;;;;;;15.70;10.82;;;;;;;17.34;83.87;98088.03;5076685;28;20017;-72
2023/10/13 06:55:35;;;;;;;17.67;10.10;;;;;;;17.26;83.16;98080.53;5077374;28;20439;-73
2023/10/13 06:58:06;;;;;;;14.98;10.20;;;;;;;17.36;82.69;98102.19;5058390;28;20079;-72
2023/10/13 07:00:35;;;;;;;16.20;10.45;;;;;;;17.44;82.27;98093.38;5070917;28;20520;-72
2023/10/13 07:03:08;;;;;;;18.35;10.40;;;;;;;17.39;81.86;98085.25;5055179;28;20017;-73
2023/10/13 07:05:38;;;;;;;14.45;9.50;;;;;;;17.46;81.04;98080.28;5040756;28;20033;-72
2023/10/13 07:08:08;;;;;;;18.95;11.13;;;;;;;17.64;80.96;98089.63;5056350;28;20484;-72
2023/10/13 07:13:37;;;;;;;16.50;9.45;;;;;;;17.64;80.90;98073.28;5000409;28;20442;-73
2023/10/13 07:16:12;;;;;;;15.48;9.95;;;;;;;17.77;80.30;98087.00;5025992;28;20040;-72
2023/10/13 07:18:49;;;;;;;14.63;9.77;;;;;;;17.80;79.86;98091.03;5047603;28;20033;-72
2023/10/13 07:21:24;;;;;;;12.07;9.18;;;;;;;17.73;79.73;98080.53;5057709;28;20494;-73
2023/10/13 07:24:00;;;;;;;19.17;8.70;;;;;;;17.79;79.39;98083.97;5073831;28;20036;-72
2023/10/13 07:26:26;;;;;;;15.45;9.27;;;;;;;17.83;78.81;98102.16;5073855;28;20044;-72
2023/10/13 07:28:52;;;;;;;16.60;9.13;;;;;;;17.74;78.85;98079.41;5055316;28;20157;-73
2023/10/13 07:31:19;;;;;;;17.92;9.30;;;;;;;17.84;78.85;98092.88;5055669;28;20499;-73
2023/10/13 07:33:44;;;;;;;17.45;9.15;;;;;;;17.81;78.56;98088.00;5056091;28;20028;-73
2023/10/13 07:36:17;;;;;;;21.52;11.95;;;;;;;17.90;78.01;98097.16;5072135;28;20040;-73
2023/10/13 07:38:48;;;;;;;21.95;11.55;;;;;;;17.88;78.44;98088.47;5055398;28;20399;-73
2023/10/13 07:41:15;;;;;;;28.13;10.52;;;;;;;17.93;77.88;98093.84;5056433;28;20456;-73
2023/10/13 07:43:41;;;;;;;15.82;8.98;;;;;;;17.89;77.33;98090.09;5055974;28;20032;-73
2023/10/13 07:46:09;;;;;;;16.25;9.65;;;;;;;17.88;76.68;98069.38;5039257;28;20037;-72
2023/10/13 07:48:36;;;;;;;15.07;8.75;;;;;;;17.95;76.34;98088.91;5055016;28;20025;-74
2023/10/13 07:51:04;;;;;;;16.25;8.35;;;;;;;17.98;76.40;98092.16;5055514;28;20032;-73
2023/10/13 07:53:40;;;;;;;15.55;8.43;;;;;;;18.02;76.22;98085.03;5055608;28;20024;-73
2023/10/13 07:56:08;;;;;;;18.38;8.43;;;;;;;18.10;75.30;98090.59;5056885;28;20043;-72
2023/10/13 07:58:34;;;;;;;12.85;7.68;;;;;;;18.19;75.40;98085.28;5038532;28;20035;-73
2023/10/13 08:03:44;;;;;;;17.67;8.23;;;;;;;18.23;74.33;98089.03;5038677;28;20400;-72
2023/10/13 08:08:39;;;;;;;9.88;7.20;;;;;;;18.29;74.00;98083.22;5054613;28;20099;-73
2023/10/13 08:11:18;;;;;;;13.73;7.82;;;;;;;18.35;73.68;98081.22;5054375;28;20131;-73
2023/10/13 08:13:46;;;;;;;14.60;7.95;;;;;;;18.38;73.60;98084.19;5055148;28;20032;-73
2023/10/13 08:16:20;;;;;;;13.95;8.10;;;;;;;18.39;73.83;98077.59;5070026;28;20048;-73
2023/10/13 08:18:48;;;;;;;15.40;8.25;;;;;;;18.50;73.25;98078.28;5065165;28;20457;-73
2023/10/13 08:21:22;;;;;;;16.65;8.20;;;;;;;18.55;73.32;98083.66;5051670;28;20024;-73
2023/10/13 08:26:32;;;;;;;12.95;7.00;;;;;;;18.67;72.08;98067.59;5051691;28;20170;-73
2023/10/13 08:29:49;;;;;;;12.35;7.15;;;;;;;18.76;71.77;98071.28;5068530;28;20028;-73
2023/10/13 08:34:38;;;;;;;12.18;7.75;;;;;;;18.83;71.58;98065.44;5045042;28;20529;-73
2023/10/13 08:37:19;;;;;;;15.60;7.82;;;;;;;18.80;71.51;98066.84;5038982;28;20052;-72
2023/10/13 08:48:12;;;;;;;14.20;7.45;;;;;;;19.37;70.63;98076.41;5071892;28;20032;-75
2023/10/13 08:50:52;;;;;;;13.93;7.20;;;;;;;19.39;70.52;98073.41;5043764;28;20040;-75
2023/10/13 08:59:05;;;;;;;15.48;7.32;;;;;;;19.61;69.48;98065.25;5065331;28;20058;-74
2023/10/13 09:07:00;;;;;;;11.85;6.40;;;;;;;19.65;67.61;98049.91;5033823;28;20067;-74
2023/10/13 09:09:27;;;;;;;12.35;6.68;;;;;;;19.75;67.22;98057.84;5066536;28;20036;-74
2023/10/13 09:12:09;;;;;;;14.15;6.95;;;;;;;19.67;66.76;98039.47;5036937;28;20028;-74
2023/10/13 09:14:43;;;;;;;10.85;7.13;;;;;;;19.75;66.36;98060.59;5053563;28;20040;-74
2023/10/13 09:19:55;;;;;;;10.35;6.32;;;;;;;20.03;66.34;98051.19;5038009;28;20103;-74
2023/10/13 09:22:28;;;;;;;13.75;6.25;;;;;;;20.26;66.24;98039.19;5047327;28;20103;-74
2023/10/13 09:24:58;;;;;;;15.18;7.22;;;;;;;20.47;66.35;98039.50;5037310;28;20031;-73
2023/10/13 09:27:26;;;;;;;9.88;6.22;;;;;;;20.62;65.23;98025.44;5053820;28;20036;-74
2023/10/13 09:30:18;;;;;;;10.32;6.03;;;;;;;20.79;63.65;98014.59;5070985;28;20049;-74
2023/10/13 09:32:50;;;;;;;11.30;5.72;;;;;;;20.85;63.11;98029.75;5050366;28;20048;-74
2023/10/13 09:35:22;;;;;;;13.68;6.35;;;;;;;20.92;61.64;98021.06;5049045;28;20098;-75
2023/10/13 09:37:49;;;;;;;14.70;5.78;;;;;;;21.01;61.86;98000.81;5053859;28;20059;-74
2023/10/13 09:40:34;;;;;;;10.25;5.93;;;;;;;21.14;61.83;98010.09;5051907;28;20053;-73
2023/10/13 09:43:08;;;;;;;14.32;6.38;;;;;;;21.24;61.57;98018.81;5070719;28;20037;-72
2023/10/13 09:45:43;;;;;;;12.23;5.72;;;;;;;21.36;62.15;98018.19;5053202;28;20032;-72
2023/10/13 09:48:21;;;;;;;13.63;5.95;;;;;;;21.30;61.14;98008.53;5053700;28;20031;-73
2023/10/13 09:50:48;;;;;;;12.18;5.47;;;;;;;21.44;61.35;98020.16;5052580;28;20503;-74
2023/10/13 09:53:18;;;;;;;11.27;5.75;;;;;;;21.49;61.83;98011.81;5052048;28;20530;-73
2023/10/13 09:56:11;;;;;;;14.13;6.53;;;;;;;21.30;61.77;98003.03;5033763;28;20063;-72
2023/10/13 09:58:47;;;;;;;9.05;6.40;;;;;;;21.38;62.04;98004.97;5040579;28;20039;-73
2023/10/13 10:01:20;;;;;;;12.52;6.63;;;;;;;21.21;62.65;97999.47;5054003;28;20031;-74
2023/10/13 10:04:07;;;;;;;12.23;6.88;;;;;;;21.15;63.31;98000.72;5054055;28;20538;-73
2023/10/13 10:06:54;;;;;;;14.88;5.82;;;;;;;21.15;63.23;98006.22;5054603;28;20131;-72
2023/10/13 10:09:22;;;;;;;11.35;6.00;;;;;;;21.26;63.65;98013.81;5068879;28;20060;-72
2023/10/13 10:12:09;;;;;;;11.25;6.57;;;;;;;21.40;63.80;98008.22;5049300;28;20044;-73
2023/10/13 10:14:44;;;;;;;14.15;6.20;;;;;;;21.53;63.37;98007.28;5068576;28;20047;-72
2023/10/13 10:17:10;;;;;;;11.43;6.45;;;;;;;21.60;63.05;97996.66;5070718;28;20033;-73
2023/10/13 10:19:46;;;;;;;12.88;6.20;;;;;;;21.71;61.90;97997.13;5052550;28;20385;-73
2023/10/13 10:22:18;;;;;;;13.10;6.00;;;;;;;21.86;62.38;98005.75;5069482;28;20051;-72
2023/10/13 10:24:43;;;;;;;16.52;7.07;;;;;;;21.93;62.04;98003.34;5070870;28;20044;-73
2023/10/13 10:27:15;;;;;;;17.30;6.30;;;;;;;21.97;61.27;97993.31;5050657;28;20121;-75
2023/10/13 10:30:03;;;;;;;11.10;6.05;;;;;;;22.12;61.53;97980.25;5036376;28;20101;-73
2023/10/13 10:32:41;;;;;;;12.55;7.18;;;;;;;22.26;61.26;97980.88;5053170;28;20044;-72
2023/10/13 10:35:20;;;;;;;12.07;6.45;;;;;;;22.18;61.35;97946.00;5052457;28;20044;-72
2023/10/13 10:37:49;;;;;;;14.98;6.15;;;;;;;22.46;61.31;97958.22;5047121;28;20029;-72
2023/10/13 10:43:01;;;;;;;11.45;6.15;;;;;;;22.80;61.33;97957.34;5053302;28;20037;-73
2023/10/13 10:45:32;;;;;;;9.82;6.15;;;;;;;22.91;60.72;97942.91;5051801;28;20243;-73
2023/10/13 10:47:58;;;;;;;18.02;6.40;;;;;;;23.11;61.07;97950.41;5050074;28;20071;-73
2023/10/13 10:50:35;;;;;;;10.77;6.20;;;;;;;23.16;58.78;97952.16;5055822;28;20052;-73
2023/10/13 10:53:08;;;;;;;14.35;5.90;;;;;;;23.01;58.95;97937.03;5074109;28;20083;-73
2023/10/13 10:55:36;;;;;;;12.85;6.00;;;;;;;23.17;58.38;97946.34;5053133;28;20041;-73
2023/10/13 10:58:05;;;;;;;9.45;5.78;;;;;;;23.09;58.47;97900.47;5069914;28;20377;-74
2023/10/13 11:00:45;;;;;;;9.75;5.68;;;;;;;23.47;57.43;97943.59;5056323;28;20040;-73
2023/10/13 11:03:11;;;;;;;11.60;5.95;;;;;;;23.52;57.55;97951.63;5055930;28;20609;-73
2023/10/13 11:05:46;;;;;;;15.52;5.97;;;;;;;23.49;56.43;97946.78;5052803;28;20108;-73
2023/10/13 11:08:31;;;;;;;10.85;5.68;;;;;;;23.43;55.80;97923.41;5019370;28;20043;-72
2023/10/13 11:10:56;;;;;;;13.65;5.07;;;;;;;23.73;56.30;97941.44;5051207;28;20061;-73
2023/10/13 11:13:22;;;;;;;11.50;5.22;;;;;;;23.73;55.17;97947.75;5073804;28;20058;-73
2023/10/13 11:15:48;;;;;;;13.00;6.15;;;;;;;23.59;55.47;97907.91;5073652;28;20080;-73
2023/10/13 11:18:20;;;;;;;10.00;5.32;;;;;;;23.62;54.43;97923.75;5052382;28;20106;-73
2023/10/13 11:20:47;;;;;;;14.35;5.90;;;;;;;23.60;54.59;97920.50;5052805;28;20036;-73
2023/10/13 11:23:15;;;;;;;10.32;5.80;;;;;;;23.79;54.12;97926.34;5039428;28;20020;-73
2023/10/13 11:25:44;;;;;;;8.93;5.63;;;;;;;23.96;54.17;97907.75;5055093;28;20097;-72
2023/10/13 11:28:20;;;;;;;13.25;5.65;;;;;;;24.09;52.98;97905.84;5052564;28;20021;-73
2023/10/13 11:30:49;;;;;;;;;;;;;;;24.19;53.11;97905.44;5055456;28;20067;-73
2023/10/13 11:33:19;;;;;;;9.85;5.90;;;;;;;24.56;53.10;97898.88;5056387;28;19912;-73
2023/10/13 11:35:55;;;;;;;17.83;5.57;;;;;;;24.57;53.15;97889.47;5051141;28;20044;-73
2023/10/13 11:38:27;;;;;;;10.95;5.50;;;;;;;24.76;52.28;97896.38;5049789;28;20149;-73
2023/10/13 11:43:35;;;;;;;10.57;5.60;;;;;;;25.48;50.75;97868.78;5052403;28;20032;-73
2023/10/13 11:48:41;;;;;;;16.73;6.30;;;;;;;27.52;47.38;97875.25;5039425;28;20345;-73
2023/10/13 11:51:08;;;;;;;10.52;5.70;;;;;;;28.82;44.04;97852.06;5051820;28;20044;-73
2023/10/13 11:53:37;;;;;;;10.82;5.30;;;;;;;29.56;42.97;97865.06;5070760;28;20020;-73
2023/10/13 11:56:09;;;;;;;10.20;5.28;;;;;;;29.31;41.82;97863.91;5055255;28;20036;-73
2023/10/13 11:58:36;;;;;;;9.45;5.93;;;;;;;29.27;41.54;97868.59;5072575;28;20043;-73
2023/10/13 12:01:20;;;;;;;8.35;5.45;;;;;;;29.47;41.46;97875.66;5052286;28;20028;-72
2023/10/13 12:09:20;;;;;;;12.43;5.80;;;;;;;30.60;38.92;97869.44;5038221;28;20455;-73
2023/10/13 12:11:46;;;;;;;9.43;5.40;;;;;;;29.39;40.98;97868.38;5051473;28;20037;-73
2023/10/13 12:17:03;;;;;;;10.90;5.32;;;;;;;28.48;41.99;97854.63;5051440;28;20115;-73
2023/10/13 12:19:28;;;;;;;10.48;5.10;;;;;;;28.13;42.58;97842.91;5053918;28;20123;-73
2023/10/13 12:21:54;;;;;;;9.45;6.10;;;;;;;27.85;42.86;97831.25;5072461;28;20020;-73
2023/10/13 12:27:00;;;;;;;13.85;5.78;;;;;;;27.44;43.09;97812.63;5049339;28;20035;-73
2023/10/13 12:29:29;;;;;;;9.23;5.30;;;;;;;27.47;43.37;97832.06;5070632;28;20028;-74
2023/10/13 12:32:08;;;;;;;9.57;4.88;;;;;;;27.33;43.60;97821.47;5037879;28;20036;-75
2023/10/13 12:51:21;;;;;;;12.70;5.75;;;;;;;26.13;46.46;97816.97;5045944;28;20037;-73
2023/10/13 12:53:51;;;;;;;7.82;5.70;;;;;;;25.90;46.35;97792.72;5024719;28;20113;-73
2023/10/13 12:56:17;;;;;;;12.23;5.80;;;;;;;25.95;47.07;97806.22;5052566;28;20040;-73
2023/10/13 12:58:51;;;;;;;15.13;5.35;;;;;;;25.84;45.89;97805.16;5053493;28;20028;-73
2023/10/13 13:01:21;;;;;;;10.82;5.30;;;;;;;25.81;46.65;97803.09;5053788;28;20040;-73
2023/10/13 13:03:47;;;;;;;8.52;5.40;;;;;;;25.71;46.99;97776.03;5053693;28;20052;-74
2023/10/13 13:06:17;;;;;;;11.52;4.90;;;;;;;25.98;46.08;97802.78;5035939;28;20416;-74
2023/10/13 13:08:44;;;;;;;10.38;5.07;;;;;;;25.98;44.89;97783.47;5071099;28;20047;-73
2023/10/13 13:11:10;;;;;;;10.23;5.45;;;;;;;25.91;44.71;97783.28;5071256;28;20040;-73
2023/10/13 13:13:36;;;;;;;10.25;5.00;;;;;;;25.85;44.44;97790.22;5053469;28;20074;-73
2023/10/13 13:16:01;;;;;;;10.70;4.85;;;;;;;25.70;43.41;97787.41;5071297;28;20107;-73
2023/10/13 13:18:26;;;;;;;8.45;4.55;;;;;;;25.63;43.43;97793.53;5069286;28;20041;-73
2023/10/13 13:20:55;;;;;;;10.20;4.78;;;;;;;25.62;43.64;97791.13;5049539;28;20048;-73
2023/10/13 13:23:25;;;;;;;12.32;5.10;;;;;;;25.60;44.35;97788.72;5053444;28;20046;-73
2023/10/13 13:25:51;;;;;;;10.27;5.13;;;;;;;25.46;43.76;97784.78;5054149;28;20048;-74
2023/10/13 13:28:17;;;;;;;8.90;4.88;;;;;;;25.30;43.37;97768.13;5071160;28;20020;-76
2023/10/13 13:30:42;;;;;;;8.77;4.65;;;;;;;25.46;43.61;97776.50;5049876;28;20037;-74
2023/10/13 13:33:11;;;;;;;9.10;4.88;;;;;;;25.45;43.54;97774.88;5040038;28;20040;-73
2023/10/13 13:35:42;;;;;;;8.48;5.00;;;;;;;25.48;44.36;97757.66;5047239;28;20045;-74
2023/10/13 13:38:16;;;;;;;11.45;5.53;;;;;;;25.54;43.43;97761.75;5037153;28;20040;-74
2023/10/13 13:40:44;;;;;;;10.07;4.85;;;;;;;25.55;42.72;97758.66;5054520;28;20101;-74
2023/10/13 13:43:17;;;;;;;6.70;4.63;;;;;;;25.55;42.58;97736.59;5053426;28;20476;-73
2023/10/13 13:45:45;;;;;;;10.68;5.03;;;;;;;25.62;42.58;97742.28;5054579;28;20565;-74
2023/10/13 13:48:15;;;;;;;8.90;4.65;;;;;;;25.72;42.74;97752.78;5034674;28;20067;-73
2023/10/13 13:50:41;;;;;;;9.27;4.63;;;;;;;25.68;43.04;97757.44;5048238;28;20078;-73
2023/10/13 13:53:09;;;;;;;8.95;5.13;;;;;;;25.68;42.64;97751.91;5071197;28;20075;-73
2023/10/13 13:55:35;;;;;;;10.82;4.70;;;;;;;25.72;42.09;97730.72;5049970;28;20037;-74
2023/10/13 13:58:01;;;;;;;9.60;4.97;;;;;;;25.90;41.96;97737.53;5048154;28;20039;-74
2023/10/13 14:00:42;;;;;;;8.18;5.03;;;;;;;25.98;42.05;97728.25;5036303;28;20032;-74
2023/10/13 14:03:12;;;;;;;11.25;5.40;;;;;;;26.25;42.27;97720.28;5038773;28;20040;-74
2023/10/13 14:05:44;;;;;;;8.32;4.78;;;;;;;26.57;41.79;97727.34;5071031;28;20036;-74
2023/10/13 14:08:11;;;;;;;9.20;4.95;;;;;;;26.56;42.07;97725.72;5049748;28;20409;-75
2023/10/13 14:11:13;;;;;;;8.13;4.50;;;;;;;26.59;42.01;97725.00;5065249;28;20027;-73
2023/10/13 14:13:47;;;;;;;12.10;4.53;;;;;;;26.30;41.98;97695.94;5048017;28;20434;-74
2023/10/13 14:16:16;;;;;;;9.57;4.63;;;;;;;26.39;41.39;97698.50;5073552;28;20039;-73
2023/10/13 14:18:44;;;;;;;7.40;4.85;;;;;;;26.52;41.59;97700.00;5074476;28;20028;-74
2023/10/13 14:21:10;;;;;;;7.90;4.70;;;;;;;26.61;42.07;97700.59;5053650;28;20028;-73
2023/10/13 14:23:36;;;;;;;10.43;5.10;;;;;;;26.75;42.00;97695.41;5048138;28;20040;-73
2023/10/13 14:26:01;;;;;;;9.93;4.68;;;;;;;26.88;41.43;97683.06;5040269;28;20060;-72
2023/10/13 14:28:34;;;;;;;9.70;5.10;;;;;;;26.96;41.77;97679.28;5053156;28;20048;-73
2023/10/13 14:31:09;;;;;;;8.77;4.95;;;;;;;26.91;41.49;97671.25;5055424;28;20476;-74
2023/10/13 14:33:36;;;;;;;7.20;4.80;;;;;;;26.85;41.57;97669.97;5074678;28;20028;-73
2023/10/13 14:36:04;;;;;;;8.23;4.88;;;;;;;26.63;41.65;97662.34;5053409;28;20029;-74
2023/10/13 14:38:30;;;;;;;11.93;4.88;;;;;;;26.48;41.54;97675.06;5068926;28;20476;-74
2023/10/13 14:40:57;;;;;;;11.15;4.95;;;;;;;26.15;42.54;97646.25;5056602;28;20150;-73
2023/10/13 14:43:27;;;;;;;10.68;4.15;;;;;;;26.01;43.37;97644.75;5039967;28;20040;-73
2023/10/13 14:45:55;;;;;;;9.10;4.60;;;;;;;26.08;42.95;97660.66;5074237;28;20024;-73
2023/10/13 14:48:24;;;;;;;8.90;4.32;;;;;;;25.98;43.09;97656.50;5052763;28;20504;-73
2023/10/13 14:50:49;;;;;;;10.15;4.80;;;;;;;25.83;43.38;97659.28;5045751;28;20020;-73
2023/10/13 14:53:19;;;;;;;8.35;4.68;;;;;;;25.72;42.98;97631.41;5055122;28;20082;-73
2023/10/13 14:55:45;;;;;;;12.05;5.22;;;;;;;25.78;43.61;97652.06;5074480;28;20392;-73
2023/10/13 14:58:15;;;;;;;9.15;4.72;;;;;;;25.72;43.89;97653.47;5074038;28;20036;-75
2023/10/13 15:00:45;;;;;;;8.98;4.88;;;;;;;25.59;43.54;97637.38;5047048;28;20473;-72
2023/10/13 15:03:11;;;;;;;7.70;4.32;;;;;;;25.51;44.43;97647.41;5056180;28;20020;-74
2023/10/13 15:05:43;;;;;;;9.35;4.63;;;;;;;25.36;43.53;97635.22;5056288;28;20123;-73
2023/10/13 15:08:09;;;;;;;13.73;4.80;;;;;;;25.21;44.64;97626.88;5073983;28;20036;-73